sensor_id;sensor_type;location;lat;lon;timestamp;P1;durP1;ratioP1;P2;durP2;ratioP2
35745;SDS011;21870;42.812;74.628;2023-06-14T00:00:58;14.88;;;7.80;;
35745;SDS011;21870;42.812;74.628;2023-06-14T00:03:25;14.68;;;6.63;;
35745;SDS011;21870;42.812;74.628;2023-06-14T00:05:51;12.57;;;6.82;;
35745;SDS011;21870;42.812;74.628;2023-06-14T00:08:17;10.35;;;6.60;;
35745;SDS011;21870;42.812;74.628;2023-06-14T00:10:44;9.82;;;6.70;;
35745;SDS011;21870;42.812;74.628;2023-06-14T00:13:10;15.25;;;6.63;;
35745;SDS011;21870;42.812;74.628;2023-06-14T00:15:37;21.23;;;7.43;;
35745;SDS011;21870;42.812;74.628;2023-06-14T00:18:04;13.23;;;6.60;;
35745;SDS011;21870;42.812;74.628;2023-06-14T00:20:31;15.35;;;7.00;;
35745;SDS011;21870;42.812;74.628;2023-06-14T00:22:59;12.48;;;5.60;;
35745;SDS011;21870;42.812;74.628;2023-06-14T00:25:25;15.77;;;6.43;;
35745;SDS011;21870;42.812;74.628;2023-06-14T00:27:52;15.10;;;6.60;;
35745;SDS011;21870;42.812;74.628;2023-06-14T00:30:22;17.25;;;6.78;;
35745;SDS011;21870;42.812;74.628;2023-06-14T00:32:48;12.02;;;6.15;;
35745;SDS011;21870;42.812;74.628;2023-06-14T00:35:15;13.90;;;6.22;;
35745;SDS011;21870;42.812;74.628;2023-06-14T00:37:41;16.88;;;5.95;;
35745;SDS011;21870;42.812;74.628;2023-06-14T00:40:07;14.63;;;6.15;;
35745;SDS011;21870;42.812;74.628;2023-06-14T00:42:33;12.13;;;6.13;;
35745;SDS011;21870;42.812;74.628;2023-06-14T00:45:00;10.27;;;5.93;;
35745;SDS011;21870;42.812;74.628;2023-06-14T00:47:26;15.40;;;6.07;;
35745;SDS011;21870;42.812;74.628;2023-06-14T00:49:55;12.82;;;7.05;;
35745;SDS011;21870;42.812;74.628;2023-06-14T00:52:22;15.50;;;6.53;;
35745;SDS011;21870;42.812;74.628;2023-06-14T00:54:51;12.60;;;5.97;;
35745;SDS011;21870;42.812;74.628;2023-06-14T00:57:17;12.05;;;6.15;;
35745;SDS011;21870;42.812;74.628;2023-06-14T00:59:47;17.17;;;6.32;;
35745;SDS011;21870;42.812;74.628;2023-06-14T01:02:14;11.48;;;6.25;;
35745;SDS011;21870;42.812;74.628;2023-06-14T01:04:40;13.68;;;6.40;;
35745;SDS011;21870;42.812;74.628;2023-06-14T01:15:39;20.40;;;6.40;;
35745;SDS011;21870;42.812;74.628;2023-06-14T01:18:08;9.13;;;5.85;;
35745;SDS011;21870;42.812;74.628;2023-06-14T01:20:42;15.32;;;7.78;;
35745;SDS011;21870;42.812;74.628;2023-06-14T01:23:19;14.07;;;6.72;;
35745;SDS011;21870;42.812;74.628;2023-06-14T01:25:46;14.00;;;7.00;;
35745;SDS011;21870;42.812;74.628;2023-06-14T01:28:18;21.92;;;8.35;;
35745;SDS011;21870;42.812;74.628;2023-06-14T01:30:52;19.23;;;9.13;;
35745;SDS011;21870;42.812;74.628;2023-06-14T01:33:20;38.10;;;11.48;;
35745;SDS011;21870;42.812;74.628;2023-06-14T01:35:49;34.20;;;9.63;;
35745;SDS011;21870;42.812;74.628;2023-06-14T01:38:21;40.35;;;10.20;;
35745;SDS011;21870;42.812;74.628;2023-06-14T01:40:49;35.17;;;9.95;;
35745;SDS011;21870;42.812;74.628;2023-06-14T01:43:18;26.00;;;9.88;;
35745;SDS011;21870;42.812;74.628;2023-06-14T01:45:45;22.65;;;9.95;;
35745;SDS011;21870;42.812;74.628;2023-06-14T01:48:14;26.25;;;8.48;;
35745;SDS011;21870;42.812;74.628;2023-06-14T01:50:40;18.45;;;7.90;;
35745;SDS011;21870;42.812;74.628;2023-06-14T01:53:07;19.48;;;9.13;;
35745;SDS011;21870;42.812;74.628;2023-06-14T01:55:37;16.50;;;9.43;;
35745;SDS011;21870;42.812;74.628;2023-06-14T01:58:08;21.05;;;8.90;;
35745;SDS011;21870;42.812;74.628;2023-06-14T02:00:35;19.83;;;8.70;;
35745;SDS011;21870;42.812;74.628;2023-06-14T02:03:01;22.55;;;8.63;;
35745;SDS011;21870;42.812;74.628;2023-06-14T02:05:29;34.25;;;11.10;;
35745;SDS011;21870;42.812;74.628;2023-06-14T02:07:55;19.13;;;8.82;;
35745;SDS011;21870;42.812;74.628;2023-06-14T02:10:22;25.38;;;9.50;;
35745;SDS011;21870;42.812;74.628;2023-06-14T02:12:48;19.55;;;9.20;;
35745;SDS011;21870;42.812;74.628;2023-06-14T02:15:15;23.33;;;9.73;;
35745;SDS011;21870;42.812;74.628;2023-06-14T02:17:45;28.35;;;11.27;;
35745;SDS011;21870;42.812;74.628;2023-06-14T02:20:14;34.83;;;15.15;;
35745;SDS011;21870;42.812;74.628;2023-06-14T02:22:41;30.08;;;14.70;;
35745;SDS011;21870;42.812;74.628;2023-06-14T02:25:07;35.20;;;14.18;;
35745;SDS011;21870;42.812;74.628;2023-06-14T02:27:34;24.60;;;13.55;;
35745;SDS011;21870;42.812;74.628;2023-06-14T02:30:00;29.08;;;13.13;;
35745;SDS011;21870;42.812;74.628;2023-06-14T02:32:27;30.48;;;14.02;;
35745;SDS011;21870;42.812;74.628;2023-06-14T02:34:53;31.95;;;13.23;;
35745;SDS011;21870;42.812;74.628;2023-06-14T02:37:19;48.55;;;13.60;;
35745;SDS011;21870;42.812;74.628;2023-06-14T02:39:46;40.38;;;13.90;;
35745;SDS011;21870;42.812;74.628;2023-06-14T02:42:12;43.22;;;13.60;;
35745;SDS011;21870;42.812;74.628;2023-06-14T02:44:38;30.52;;;11.90;;
35745;SDS011;21870;42.812;74.628;2023-06-14T02:47:05;43.95;;;14.73;;
35745;SDS011;21870;42.812;74.628;2023-06-14T02:49:31;39.05;;;15.15;;
35745;SDS011;21870;42.812;74.628;2023-06-14T02:51:57;31.92;;;15.13;;
35745;SDS011;21870;42.812;74.628;2023-06-14T02:54:23;32.17;;;12.95;;
35745;SDS011;21870;42.812;74.628;2023-06-14T02:56:49;18.80;;;11.50;;
35745;SDS011;21870;42.812;74.628;2023-06-14T02:59:15;24.42;;;11.27;;
35745;SDS011;21870;42.812;74.628;2023-06-14T03:01:42;26.05;;;11.82;;
35745;SDS011;21870;42.812;74.628;2023-06-14T03:04:08;19.55;;;10.50;;
35745;SDS011;21870;42.812;74.628;2023-06-14T03:06:34;24.58;;;11.32;;
35745;SDS011;21870;42.812;74.628;2023-06-14T03:09:02;71.00;;;15.27;;
35745;SDS011;21870;42.812;74.628;2023-06-14T03:11:32;30.05;;;11.05;;
35745;SDS011;21870;42.812;74.628;2023-06-14T03:13:58;17.23;;;10.90;;
35745;SDS011;21870;42.812;74.628;2023-06-14T03:16:25;45.38;;;12.35;;
35745;SDS011;21870;42.812;74.628;2023-06-14T03:18:55;42.28;;;11.68;;
35745;SDS011;21870;42.812;74.628;2023-06-14T03:21:21;26.25;;;11.27;;
35745;SDS011;21870;42.812;74.628;2023-06-14T03:23:47;20.88;;;9.85;;
35745;SDS011;21870;42.812;74.628;2023-06-14T03:26:14;22.65;;;10.75;;
35745;SDS011;21870;42.812;74.628;2023-06-14T03:28:46;27.45;;;11.73;;
35745;SDS011;21870;42.812;74.628;2023-06-14T03:31:16;33.10;;;11.02;;
35745;SDS011;21870;42.812;74.628;2023-06-14T03:33:42;22.95;;;11.18;;
35745;SDS011;21870;42.812;74.628;2023-06-14T03:36:08;17.30;;;11.73;;
35745;SDS011;21870;42.812;74.628;2023-06-14T03:38:34;31.88;;;13.07;;
35745;SDS011;21870;42.812;74.628;2023-06-14T03:41:00;22.92;;;11.55;;
35745;SDS011;21870;42.812;74.628;2023-06-14T03:43:27;38.00;;;12.23;;
35745;SDS011;21870;42.812;74.628;2023-06-14T03:45:53;25.92;;;12.00;;
35745;SDS011;21870;42.812;74.628;2023-06-14T03:48:19;21.95;;;11.73;;
35745;SDS011;21870;42.812;74.628;2023-06-14T03:50:45;24.95;;;11.63;;
35745;SDS011;21870;42.812;74.628;2023-06-14T03:53:12;18.73;;;10.75;;
35745;SDS011;21870;42.812;74.628;2023-06-14T03:55:38;23.45;;;10.73;;
35745;SDS011;21870;42.812;74.628;2023-06-14T03:58:04;18.40;;;11.73;;
35745;SDS011;21870;42.812;74.628;2023-06-14T04:00:31;20.90;;;11.90;;
35745;SDS011;21870;42.812;74.628;2023-06-14T04:02:57;24.50;;;11.98;;
35745;SDS011;21870;42.812;74.628;2023-06-14T04:05:23;19.67;;;11.18;;
35745;SDS011;21870;42.812;74.628;2023-06-14T04:07:51;15.50;;;10.57;;
35745;SDS011;21870;42.812;74.628;2023-06-14T04:10:21;15.60;;;11.13;;
35745;SDS011;21870;42.812;74.628;2023-06-14T04:12:48;23.05;;;11.50;;
35745;SDS011;21870;42.812;74.628;2023-06-14T04:15:14;18.00;;;11.55;;
35745;SDS011;21870;42.812;74.628;2023-06-14T04:17:40;18.90;;;11.13;;
35745;SDS011;21870;42.812;74.628;2023-06-14T04:20:06;19.85;;;11.68;;
35745;SDS011;21870;42.812;74.628;2023-06-14T04:22:34;21.65;;;11.23;;
35745;SDS011;21870;42.812;74.628;2023-06-14T04:25:01;18.67;;;11.23;;
35745;SDS011;21870;42.812;74.628;2023-06-14T04:27:27;20.55;;;11.93;;
35745;SDS011;21870;42.812;74.628;2023-06-14T04:29:56;18.73;;;11.57;;
35745;SDS011;21870;42.812;74.628;2023-06-14T04:32:26;28.30;;;12.32;;
35745;SDS011;21870;42.812;74.628;2023-06-14T04:34:53;24.08;;;13.73;;
35745;SDS011;21870;42.812;74.628;2023-06-14T04:37:23;29.33;;;15.75;;
35745;SDS011;21870;42.812;74.628;2023-06-14T04:39:49;28.23;;;13.68;;
35745;SDS011;21870;42.812;74.628;2023-06-14T04:42:16;35.03;;;12.88;;
35745;SDS011;21870;42.812;74.628;2023-06-14T04:44:45;22.65;;;12.63;;
35745;SDS011;21870;42.812;74.628;2023-06-14T04:47:13;20.58;;;12.27;;
35745;SDS011;21870;42.812;74.628;2023-06-14T04:49:41;22.45;;;12.20;;
35745;SDS011;21870;42.812;74.628;2023-06-14T04:52:08;31.05;;;13.10;;
35745;SDS011;21870;42.812;74.628;2023-06-14T04:54:35;26.48;;;12.95;;
35745;SDS011;21870;42.812;74.628;2023-06-14T04:57:10;26.95;;;13.35;;
35745;SDS011;21870;42.812;74.628;2023-06-14T04:59:42;33.65;;;13.77;;
35745;SDS011;21870;42.812;74.628;2023-06-14T05:02:09;28.52;;;12.98;;
35745;SDS011;21870;42.812;74.628;2023-06-14T05:04:36;34.00;;;13.15;;
35745;SDS011;21870;42.812;74.628;2023-06-14T05:07:06;25.25;;;12.05;;
35745;SDS011;21870;42.812;74.628;2023-06-14T05:09:34;32.15;;;13.25;;
35745;SDS011;21870;42.812;74.628;2023-06-14T05:12:03;25.90;;;12.95;;
35745;SDS011;21870;42.812;74.628;2023-06-14T05:14:30;72.97;;;17.48;;
35745;SDS011;21870;42.812;74.628;2023-06-14T05:16:56;24.80;;;12.40;;
35745;SDS011;21870;42.812;74.628;2023-06-14T05:19:22;31.98;;;13.45;;
35745;SDS011;21870;42.812;74.628;2023-06-14T05:21:48;23.05;;;12.50;;
35745;SDS011;21870;42.812;74.628;2023-06-14T05:24:14;36.88;;;12.27;;
35745;SDS011;21870;42.812;74.628;2023-06-14T05:26:43;23.15;;;12.48;;
35745;SDS011;21870;42.812;74.628;2023-06-14T05:29:09;28.52;;;11.93;;
35745;SDS011;21870;42.812;74.628;2023-06-14T05:31:35;26.80;;;11.77;;
35745;SDS011;21870;42.812;74.628;2023-06-14T05:34:01;24.48;;;11.55;;
35745;SDS011;21870;42.812;74.628;2023-06-14T05:36:27;22.00;;;11.48;;
35745;SDS011;21870;42.812;74.628;2023-06-14T05:38:54;25.75;;;12.18;;
35745;SDS011;21870;42.812;74.628;2023-06-14T05:41:25;30.23;;;12.48;;
35745;SDS011;21870;42.812;74.628;2023-06-14T05:43:53;33.47;;;12.85;;
35745;SDS011;21870;42.812;74.628;2023-06-14T05:46:20;31.80;;;13.10;;
35745;SDS011;21870;42.812;74.628;2023-06-14T05:48:54;40.45;;;13.50;;
35745;SDS011;21870;42.812;74.628;2023-06-14T05:51:21;28.48;;;12.80;;
35745;SDS011;21870;42.812;74.628;2023-06-14T05:53:50;36.88;;;12.27;;
35745;SDS011;21870;42.812;74.628;2023-06-14T05:56:17;34.30;;;12.38;;
35745;SDS011;21870;42.812;74.628;2023-06-14T05:58:43;34.70;;;11.77;;
35745;SDS011;21870;42.812;74.628;2023-06-14T06:01:10;41.90;;;12.07;;
35745;SDS011;21870;42.812;74.628;2023-06-14T06:03:36;29.23;;;11.50;;
35745;SDS011;21870;42.812;74.628;2023-06-14T06:06:02;27.90;;;11.63;;
35745;SDS011;21870;42.812;74.628;2023-06-14T06:08:29;26.63;;;11.52;;
35745;SDS011;21870;42.812;74.628;2023-06-14T06:10:55;41.47;;;13.70;;
35745;SDS011;21870;42.812;74.628;2023-06-14T06:13:21;29.30;;;11.68;;
35745;SDS011;21870;42.812;74.628;2023-06-14T06:15:48;37.15;;;11.18;;
35745;SDS011;21870;42.812;74.628;2023-06-14T06:18:14;32.60;;;11.00;;
35745;SDS011;21870;42.812;74.628;2023-06-14T06:20:40;27.60;;;9.13;;
35745;SDS011;21870;42.812;74.628;2023-06-14T06:23:06;22.65;;;9.27;;
35745;SDS011;21870;42.812;74.628;2023-06-14T06:25:34;22.85;;;9.32;;
35745;SDS011;21870;42.812;74.628;2023-06-14T06:28:01;28.83;;;9.60;;
35745;SDS011;21870;42.812;74.628;2023-06-14T06:30:27;22.40;;;7.80;;
35745;SDS011;21870;42.812;74.628;2023-06-14T06:32:53;28.23;;;6.95;;
35745;SDS011;21870;42.812;74.628;2023-06-14T06:35:20;22.63;;;7.00;;
35745;SDS011;21870;42.812;74.628;2023-06-14T06:37:46;25.17;;;7.28;;
35745;SDS011;21870;42.812;74.628;2023-06-14T06:40:13;19.20;;;7.50;;
35745;SDS011;21870;42.812;74.628;2023-06-14T06:42:39;19.05;;;6.97;;
35745;SDS011;21870;42.812;74.628;2023-06-14T06:45:05;17.17;;;6.22;;
35745;SDS011;21870;42.812;74.628;2023-06-14T06:47:31;29.65;;;8.63;;
35745;SDS011;21870;42.812;74.628;2023-06-14T06:49:57;23.30;;;7.35;;
35745;SDS011;21870;42.812;74.628;2023-06-14T06:52:23;20.73;;;8.35;;
35745;SDS011;21870;42.812;74.628;2023-06-14T06:54:49;17.50;;;6.53;;
35745;SDS011;21870;42.812;74.628;2023-06-14T06:57:20;20.45;;;6.55;;
35745;SDS011;21870;42.812;74.628;2023-06-14T06:59:48;18.15;;;6.65;;
35745;SDS011;21870;42.812;74.628;2023-06-14T07:02:15;25.63;;;7.00;;
35745;SDS011;21870;42.812;74.628;2023-06-14T07:04:41;17.13;;;6.10;;
35745;SDS011;21870;42.812;74.628;2023-06-14T07:07:07;20.08;;;7.65;;
35745;SDS011;21870;42.812;74.628;2023-06-14T07:09:35;21.27;;;7.00;;
35745;SDS011;21870;42.812;74.628;2023-06-14T07:12:01;16.10;;;6.22;;
35745;SDS011;21870;42.812;74.628;2023-06-14T07:14:27;17.80;;;7.10;;
35745;SDS011;21870;42.812;74.628;2023-06-14T07:16:55;16.80;;;6.53;;
35745;SDS011;21870;42.812;74.628;2023-06-14T07:19:21;13.18;;;6.55;;
35745;SDS011;21870;42.812;74.628;2023-06-14T07:21:47;20.50;;;6.95;;
35745;SDS011;21870;42.812;74.628;2023-06-14T07:24:13;24.50;;;7.53;;
35745;SDS011;21870;42.812;74.628;2023-06-14T07:26:39;25.27;;;6.55;;
35745;SDS011;21870;42.812;74.628;2023-06-14T07:29:05;23.42;;;6.53;;
35745;SDS011;21870;42.812;74.628;2023-06-14T07:31:31;22.30;;;6.60;;
35745;SDS011;21870;42.812;74.628;2023-06-14T07:33:58;20.58;;;7.60;;
35745;SDS011;21870;42.812;74.628;2023-06-14T07:36:24;24.33;;;8.48;;
35745;SDS011;21870;42.812;74.628;2023-06-14T07:38:50;24.17;;;7.97;;
35745;SDS011;21870;42.812;74.628;2023-06-14T07:41:16;20.63;;;7.13;;
35745;SDS011;21870;42.812;74.628;2023-06-14T07:43:42;26.23;;;7.63;;
35745;SDS011;21870;42.812;74.628;2023-06-14T07:46:08;27.67;;;7.82;;
35745;SDS011;21870;42.812;74.628;2023-06-14T07:48:35;22.75;;;8.45;;
35745;SDS011;21870;42.812;74.628;2023-06-14T07:51:01;29.02;;;9.20;;
35745;SDS011;21870;42.812;74.628;2023-06-14T07:53:27;27.25;;;8.10;;
35745;SDS011;21870;42.812;74.628;2023-06-14T07:55:54;29.67;;;8.18;;
35745;SDS011;21870;42.812;74.628;2023-06-14T07:58:20;31.17;;;8.45;;
35745;SDS011;21870;42.812;74.628;2023-06-14T08:00:46;29.80;;;7.47;;
35745;SDS011;21870;42.812;74.628;2023-06-14T08:03:12;27.45;;;7.63;;
35745;SDS011;21870;42.812;74.628;2023-06-14T08:05:39;49.97;;;11.68;;
35745;SDS011;21870;42.812;74.628;2023-06-14T08:08:05;32.80;;;7.13;;
35745;SDS011;21870;42.812;74.628;2023-06-14T08:10:31;22.65;;;6.70;;
35745;SDS011;21870;42.812;74.628;2023-06-14T08:12:57;18.40;;;6.43;;
35745;SDS011;21870;42.812;74.628;2023-06-14T08:15:23;19.88;;;6.20;;
35745;SDS011;21870;42.812;74.628;2023-06-14T08:17:49;22.13;;;7.97;;
35745;SDS011;21870;42.812;74.628;2023-06-14T08:20:16;13.45;;;6.38;;
35745;SDS011;21870;42.812;74.628;2023-06-14T08:22:42;15.80;;;5.90;;
35745;SDS011;21870;42.812;74.628;2023-06-14T08:25:09;26.17;;;7.88;;
35745;SDS011;21870;42.812;74.628;2023-06-14T08:27:37;25.98;;;7.47;;
35745;SDS011;21870;42.812;74.628;2023-06-14T08:30:03;16.20;;;6.97;;
35745;SDS011;21870;42.812;74.628;2023-06-14T08:32:29;22.48;;;7.43;;
35745;SDS011;21870;42.812;74.628;2023-06-14T08:34:55;24.33;;;8.90;;
35745;SDS011;21870;42.812;74.628;2023-06-14T08:37:24;19.92;;;8.27;;
35745;SDS011;21870;42.812;74.628;2023-06-14T08:39:52;21.40;;;8.35;;
35745;SDS011;21870;42.812;74.628;2023-06-14T08:42:18;29.25;;;8.32;;
35745;SDS011;21870;42.812;74.628;2023-06-14T08:44:46;35.13;;;8.25;;
35745;SDS011;21870;42.812;74.628;2023-06-14T08:47:13;37.95;;;9.15;;
35745;SDS011;21870;42.812;74.628;2023-06-14T08:49:41;25.92;;;7.85;;
35745;SDS011;21870;42.812;74.628;2023-06-14T08:52:10;18.23;;;6.82;;
35745;SDS011;21870;42.812;74.628;2023-06-14T08:54:38;25.48;;;9.25;;
35745;SDS011;21870;42.812;74.628;2023-06-14T08:57:10;23.42;;;7.28;;
35745;SDS011;21870;42.812;74.628;2023-06-14T08:59:43;19.50;;;6.82;;
35745;SDS011;21870;42.812;74.628;2023-06-14T09:02:14;23.02;;;6.60;;
35745;SDS011;21870;42.812;74.628;2023-06-14T09:04:44;14.65;;;6.95;;
35745;SDS011;21870;42.812;74.628;2023-06-14T09:07:11;13.57;;;7.47;;
35745;SDS011;21870;42.812;74.628;2023-06-14T09:09:41;19.52;;;7.30;;
35745;SDS011;21870;42.812;74.628;2023-06-14T09:12:10;22.42;;;6.15;;
35745;SDS011;21870;42.812;74.628;2023-06-14T09:14:37;23.95;;;8.00;;
35745;SDS011;21870;42.812;74.628;2023-06-14T09:17:13;24.63;;;7.03;;
35745;SDS011;21870;42.812;74.628;2023-06-14T09:19:39;16.58;;;7.28;;
35745;SDS011;21870;42.812;74.628;2023-06-14T09:22:06;19.35;;;7.50;;
35745;SDS011;21870;42.812;74.628;2023-06-14T09:24:36;28.23;;;6.32;;
35745;SDS011;21870;42.812;74.628;2023-06-14T09:27:02;22.02;;;6.60;;
35745;SDS011;21870;42.812;74.628;2023-06-14T09:29:29;26.80;;;7.95;;
35745;SDS011;21870;42.812;74.628;2023-06-14T09:31:56;17.23;;;6.30;;
35745;SDS011;21870;42.812;74.628;2023-06-14T09:34:23;18.88;;;6.47;;
35745;SDS011;21870;42.812;74.628;2023-06-14T09:36:49;19.88;;;7.38;;
35745;SDS011;21870;42.812;74.628;2023-06-14T09:39:17;18.90;;;6.63;;
35745;SDS011;21870;42.812;74.628;2023-06-14T09:41:43;13.32;;;5.38;;
35745;SDS011;21870;42.812;74.628;2023-06-14T09:44:10;18.08;;;6.63;;
35745;SDS011;21870;42.812;74.628;2023-06-14T09:46:37;28.95;;;6.68;;
35745;SDS011;21870;42.812;74.628;2023-06-14T09:49:04;22.70;;;6.97;;
35745;SDS011;21870;42.812;74.628;2023-06-14T09:51:30;14.07;;;5.50;;
35745;SDS011;21870;42.812;74.628;2023-06-14T09:54:00;15.65;;;5.93;;
35745;SDS011;21870;42.812;74.628;2023-06-14T09:56:31;18.45;;;5.57;;
35745;SDS011;21870;42.812;74.628;2023-06-14T09:59:06;19.08;;;5.78;;
35745;SDS011;21870;42.812;74.628;2023-06-14T10:01:35;23.48;;;6.75;;
35745;SDS011;21870;42.812;74.628;2023-06-14T10:04:07;21.15;;;7.15;;
35745;SDS011;21870;42.812;74.628;2023-06-14T10:06:43;13.95;;;5.63;;
35745;SDS011;21870;42.812;74.628;2023-06-14T10:09:11;17.73;;;6.15;;
35745;SDS011;21870;42.812;74.628;2023-06-14T10:11:41;14.82;;;5.43;;
35745;SDS011;21870;42.812;74.628;2023-06-14T10:14:11;14.15;;;6.03;;
35745;SDS011;21870;42.812;74.628;2023-06-14T10:16:45;17.23;;;5.82;;
35745;SDS011;21870;42.812;74.628;2023-06-14T10:19:29;29.48;;;7.00;;
35745;SDS011;21870;42.812;74.628;2023-06-14T10:22:39;59.88;;;10.40;;
35745;SDS011;21870;42.812;74.628;2023-06-14T10:25:30;14.32;;;5.88;;
35745;SDS011;21870;42.812;74.628;2023-06-14T10:31:03;24.38;;;6.75;;
35745;SDS011;21870;42.812;74.628;2023-06-14T10:33:32;12.55;;;5.53;;
35745;SDS011;21870;42.812;74.628;2023-06-14T10:36:09;20.00;;;6.35;;
35745;SDS011;21870;42.812;74.628;2023-06-14T10:41:32;21.05;;;6.38;;
35745;SDS011;21870;42.812;74.628;2023-06-14T10:46:39;31.60;;;6.20;;
35745;SDS011;21870;42.812;74.628;2023-06-14T10:49:11;14.50;;;5.65;;
35745;SDS011;21870;42.812;74.628;2023-06-14T10:51:41;20.85;;;7.07;;
35745;SDS011;21870;42.812;74.628;2023-06-14T10:54:17;22.08;;;6.03;;
35745;SDS011;21870;42.812;74.628;2023-06-14T10:56:46;19.55;;;5.57;;
35745;SDS011;21870;42.812;74.628;2023-06-14T10:59:13;23.55;;;5.55;;
35745;SDS011;21870;42.812;74.628;2023-06-14T11:04:50;23.02;;;6.95;;
35745;SDS011;21870;42.812;74.628;2023-06-14T11:10:05;18.45;;;5.80;;
35745;SDS011;21870;42.812;74.628;2023-06-14T11:12:51;26.88;;;6.38;;
35745;SDS011;21870;42.812;74.628;2023-06-14T11:15:20;19.08;;;5.60;;
35745;SDS011;21870;42.812;74.628;2023-06-14T11:17:49;27.02;;;6.53;;
35745;SDS011;21870;42.812;74.628;2023-06-14T11:20:18;20.75;;;5.25;;
35745;SDS011;21870;42.812;74.628;2023-06-14T11:22:45;16.67;;;6.22;;
35745;SDS011;21870;42.812;74.628;2023-06-14T11:25:11;26.17;;;5.90;;
35745;SDS011;21870;42.812;74.628;2023-06-14T11:27:38;62.70;;;10.35;;
35745;SDS011;21870;42.812;74.628;2023-06-14T11:30:06;12.80;;;5.47;;
35745;SDS011;21870;42.812;74.628;2023-06-14T11:32:34;28.55;;;7.43;;
35745;SDS011;21870;42.812;74.628;2023-06-14T11:35:01;29.35;;;7.18;;
35745;SDS011;21870;42.812;74.628;2023-06-14T11:37:27;24.75;;;6.20;;
35745;SDS011;21870;42.812;74.628;2023-06-14T11:39:57;18.95;;;6.25;;
35745;SDS011;21870;42.812;74.628;2023-06-14T11:42:24;22.48;;;6.65;;
35745;SDS011;21870;42.812;74.628;2023-06-14T11:44:53;20.83;;;6.40;;
35745;SDS011;21870;42.812;74.628;2023-06-14T11:47:19;14.65;;;6.28;;
35745;SDS011;21870;42.812;74.628;2023-06-14T11:49:46;20.05;;;5.65;;
35745;SDS011;21870;42.812;74.628;2023-06-14T11:52:13;18.25;;;5.55;;
35745;SDS011;21870;42.812;74.628;2023-06-14T11:54:40;60.42;;;11.07;;
35745;SDS011;21870;42.812;74.628;2023-06-14T11:57:06;17.33;;;5.60;;
35745;SDS011;21870;42.812;74.628;2023-06-14T11:59:39;35.97;;;7.45;;
35745;SDS011;21870;42.812;74.628;2023-06-14T12:02:06;24.63;;;5.72;;
35745;SDS011;21870;42.812;74.628;2023-06-14T12:04:33;9.70;;;5.20;;
35745;SDS011;21870;42.812;74.628;2023-06-14T12:07:10;16.90;;;6.22;;
35745;SDS011;21870;42.812;74.628;2023-06-14T12:09:41;27.25;;;6.93;;
35745;SDS011;21870;42.812;74.628;2023-06-14T12:12:11;26.27;;;6.70;;
35745;SDS011;21870;42.812;74.628;2023-06-14T12:14:39;24.30;;;5.65;;
35745;SDS011;21870;42.812;74.628;2023-06-14T12:17:07;14.98;;;6.10;;
35745;SDS011;21870;42.812;74.628;2023-06-14T12:19:41;31.02;;;7.53;;
35745;SDS011;21870;42.812;74.628;2023-06-14T12:22:11;11.48;;;5.75;;
35745;SDS011;21870;42.812;74.628;2023-06-14T12:24:39;19.23;;;6.05;;
35745;SDS011;21870;42.812;74.628;2023-06-14T12:27:08;18.77;;;6.18;;
35745;SDS011;21870;42.812;74.628;2023-06-14T12:29:37;15.30;;;6.30;;
35745;SDS011;21870;42.812;74.628;2023-06-14T12:32:03;12.73;;;6.20;;
35745;SDS011;21870;42.812;74.628;2023-06-14T12:34:29;16.10;;;5.60;;
35745;SDS011;21870;42.812;74.628;2023-06-14T12:36:56;13.05;;;5.00;;
35745;SDS011;21870;42.812;74.628;2023-06-14T12:39:22;15.68;;;6.30;;
35745;SDS011;21870;42.812;74.628;2023-06-14T12:41:49;18.45;;;7.05;;
35745;SDS011;21870;42.812;74.628;2023-06-14T12:44:15;23.42;;;7.15;;
35745;SDS011;21870;42.812;74.628;2023-06-14T12:46:42;17.48;;;6.22;;
35745;SDS011;21870;42.812;74.628;2023-06-14T12:49:09;13.20;;;5.93;;
35745;SDS011;21870;42.812;74.628;2023-06-14T12:51:37;19.08;;;5.55;;
35745;SDS011;21870;42.812;74.628;2023-06-14T12:54:06;12.90;;;6.18;;
35745;SDS011;21870;42.812;74.628;2023-06-14T12:56:32;18.77;;;6.03;;
35745;SDS011;21870;42.812;74.628;2023-06-14T12:58:58;18.40;;;6.65;;
35745;SDS011;21870;42.812;74.628;2023-06-14T13:01:24;18.67;;;5.68;;
35745;SDS011;21870;42.812;74.628;2023-06-14T13:03:51;20.55;;;5.80;;
35745;SDS011;21870;42.812;74.628;2023-06-14T13:06:22;21.58;;;6.70;;
35745;SDS011;21870;42.812;74.628;2023-06-14T13:08:48;32.30;;;6.93;;
35745;SDS011;21870;42.812;74.628;2023-06-14T13:11:15;29.80;;;7.38;;
35745;SDS011;21870;42.812;74.628;2023-06-14T13:13:41;20.60;;;6.63;;
35745;SDS011;21870;42.812;74.628;2023-06-14T13:16:07;19.95;;;6.28;;
35745;SDS011;21870;42.812;74.628;2023-06-14T13:18:33;14.38;;;6.65;;
35745;SDS011;21870;42.812;74.628;2023-06-14T13:21:00;32.15;;;7.47;;
35745;SDS011;21870;42.812;74.628;2023-06-14T13:23:26;15.93;;;5.93;;
35745;SDS011;21870;42.812;74.628;2023-06-14T13:25:52;14.63;;;6.03;;
35745;SDS011;21870;42.812;74.628;2023-06-14T13:28:18;19.88;;;6.63;;
35745;SDS011;21870;42.812;74.628;2023-06-14T13:30:46;15.57;;;6.75;;
35745;SDS011;21870;42.812;74.628;2023-06-14T13:33:16;25.10;;;7.97;;
35745;SDS011;21870;42.812;74.628;2023-06-14T13:35:42;16.23;;;6.88;;
35745;SDS011;21870;42.812;74.628;2023-06-14T13:38:09;17.55;;;6.95;;
35745;SDS011;21870;42.812;74.628;2023-06-14T13:40:36;21.52;;;6.38;;
35745;SDS011;21870;42.812;74.628;2023-06-14T13:43:02;13.68;;;6.30;;
35745;SDS011;21870;42.812;74.628;2023-06-14T13:45:28;10.70;;;5.78;;
35745;SDS011;21870;42.812;74.628;2023-06-14T13:47:54;14.77;;;7.07;;
35745;SDS011;21870;42.812;74.628;2023-06-14T13:50:20;16.67;;;6.13;;
35745;SDS011;21870;42.812;74.628;2023-06-14T13:52:46;12.68;;;6.18;;
35745;SDS011;21870;42.812;74.628;2023-06-14T13:55:12;28.50;;;8.27;;
35745;SDS011;21870;42.812;74.628;2023-06-14T13:57:39;17.42;;;6.68;;
35745;SDS011;21870;42.812;74.628;2023-06-14T14:00:05;12.00;;;6.20;;
35745;SDS011;21870;42.812;74.628;2023-06-14T14:02:33;17.67;;;5.75;;
35745;SDS011;21870;42.812;74.628;2023-06-14T14:04:59;28.88;;;8.10;;
35745;SDS011;21870;42.812;74.628;2023-06-14T14:07:26;22.58;;;8.20;;
35745;SDS011;21870;42.812;74.628;2023-06-14T14:09:53;18.35;;;6.80;;
35745;SDS011;21870;42.812;74.628;2023-06-14T14:12:19;23.55;;;7.32;;
35745;SDS011;21870;42.812;74.628;2023-06-14T14:14:45;37.30;;;9.07;;
35745;SDS011;21870;42.812;74.628;2023-06-14T14:17:12;25.45;;;9.18;;
35745;SDS011;21870;42.812;74.628;2023-06-14T14:19:38;36.83;;;9.45;;
35745;SDS011;21870;42.812;74.628;2023-06-14T14:22:04;26.13;;;8.90;;
35745;SDS011;21870;42.812;74.628;2023-06-14T14:24:33;21.08;;;9.30;;
35745;SDS011;21870;42.812;74.628;2023-06-14T14:27:00;29.77;;;10.77;;
35745;SDS011;21870;42.812;74.628;2023-06-14T14:29:26;33.22;;;10.65;;
35745;SDS011;21870;42.812;74.628;2023-06-14T14:31:54;31.67;;;11.02;;
35745;SDS011;21870;42.812;74.628;2023-06-14T14:34:21;33.53;;;12.13;;
35745;SDS011;21870;42.812;74.628;2023-06-14T14:36:49;31.02;;;12.80;;
35745;SDS011;21870;42.812;74.628;2023-06-14T14:39:15;38.42;;;11.20;;
35745;SDS011;21870;42.812;74.628;2023-06-14T14:41:41;27.80;;;11.27;;
35745;SDS011;21870;42.812;74.628;2023-06-14T14:44:07;22.35;;;9.98;;